Terminal Aerodrome Forecast
Issued by NWS Tuscon, AZ

Home | Current Version | Previous Version | Text Only | Print | Product List | Glossary On
Versions: 1 2 3 4 5 6 7 8 9 10 11 12 13 14
000
FTUS45 KTWC 301700
TAFTUS
TAF
KTUS 301732Z 3018/3118 15003KT P6SM SCT130 BKN200
     FM302000 32008KT P6SM SCT100 BKN200
     FM310400 15005KT P6SM FEW120 BKN200=

USA.gov is the U.S. government's official web portal to all federal, state and local government web resources and services.